Time;durP1;ratioP1;P1;durP2;ratioP2;P2;SDS_P1;SDS_P2;PMS_P1;PMS_P2;Temp;Humidity;BMP_temperature;BMP_pressure;BME280_temperature;BME280_humidity;BME280_pressure;Samples;Min_cycle;Max_cycle;Signal;HPM_P1;HPM_P2
2022/11/27 00:02:10;;;;;;;11.57;5.47;;;8.10;82.30;;;;;;5095604;28;20051;-68
2022/11/27 00:04:36;;;;;;;9.83;5.50;;;8.10;82.40;;;;;;5095361;28;21306;-68
2022/11/27 00:07:01;;;;;;;8.70;5.47;;;8.00;82.50;;;;;;5095021;28;20523;-68
2022/11/27 00:09:27;;;;;;;8.27;5.63;;;8.00;82.40;;;;;;5095406;28;20063;-68
2022/11/27 00:11:53;;;;;;;9.33;5.70;;;8.00;82.80;;;;;;5095487;28;20055;-68
2022/11/27 00:14:18;;;;;;;11.70;6.50;;;7.90;83.40;;;;;;5095338;28;20020;-68
2022/11/27 00:16:44;;;;;;;16.87;7.47;;;7.80;84.00;;;;;;5095099;28;20050;-68
2022/11/27 00:19:10;;;;;;;14.47;6.73;;;7.80;84.60;;;;;;5095120;28;20016;-68
2022/11/27 00:21:37;;;;;;;13.57;6.70;;;7.70;85.30;;;;;;5095121;28;20495;-68
2022/11/27 00:24:05;;;;;;;12.13;6.37;;;7.70;85.00;;;;;;5095039;28;20020;-68
2022/11/27 00:26:32;;;;;;;11.47;6.80;;;7.60;84.80;;;;;;5094729;28;20035;-68
2022/11/27 00:28:58;;;;;;;13.10;6.83;;;7.60;85.00;;;;;;5094566;28;20055;-68
2022/11/27 00:31:28;;;;;;;8.93;6.07;;;7.60;85.00;;;;;;5095032;28;20016;-68
2022/11/27 00:33:59;;;;;;;11.40;6.13;;;7.60;84.90;;;;;;5094906;28;20051;-68
2022/11/27 00:36:26;;;;;;;8.80;5.70;;;7.50;85.20;;;;;;5094721;28;20431;-68
2022/11/27 00:38:53;;;;;;;11.07;6.40;;;7.50;85.20;;;;;;5094881;28;20032;-68
2022/11/27 00:41:21;;;;;;;10.43;6.50;;;7.50;85.70;;;;;;5094624;28;20024;-68
2022/11/27 00:43:47;;;;;;;8.87;5.80;;;7.40;85.60;;;;;;5094811;28;20053;-68
2022/11/27 00:46:14;;;;;;;8.17;5.70;;;7.40;85.90;;;;;;5094564;28;20031;-68
2022/11/27 00:48:40;;;;;;;9.50;6.17;;;7.40;86.40;;;;;;5094594;28;20060;-69
2022/11/27 00:51:08;;;;;;;8.57;5.93;;;7.40;85.50;;;;;;5093273;28;20390;-68
2022/11/27 00:53:34;;;;;;;8.17;5.50;;;7.30;85.90;;;;;;5094557;28;20027;-68
2022/11/27 00:56:00;;;;;;;10.03;6.03;;;7.30;86.20;;;;;;5094609;28;20035;-68
2022/11/27 00:58:26;;;;;;;9.13;6.03;;;7.30;86.80;;;;;;5094385;28;20070;-68
2022/11/27 01:00:57;;;;;;;9.23;6.30;;;7.20;86.70;;;;;;5094128;28;20028;-68
2022/11/27 01:03:23;;;;;;;11.23;5.93;;;7.20;87.00;;;;;;5094441;28;20387;-68
2022/11/27 01:05:49;;;;;;;12.57;6.23;;;7.20;87.10;;;;;;5094417;28;20385;-68
2022/11/27 01:08:15;;;;;;;8.93;5.70;;;7.20;87.00;;;;;;5094202;28;20032;-68
2022/11/27 01:10:48;;;;;;;9.33;5.87;;;7.10;87.10;;;;;;5094095;28;20462;-68
2022/11/27 01:13:14;;;;;;;9.83;6.10;;;7.10;87.30;;;;;;5094065;28;20051;-68
2022/11/27 01:15:39;;;;;;;12.07;6.63;;;7.10;87.20;;;;;;5094053;28;20107;-69
2022/11/27 01:18:05;;;;;;;10.97;6.20;;;7.10;87.10;;;;;;5093891;28;20039;-68
2022/11/27 01:20:31;;;;;;;11.23;6.63;;;7.10;87.40;;;;;;5094127;28;20076;-68
2022/11/27 01:22:56;;;;;;;10.57;6.20;;;7.00;87.40;;;;;;5094198;28;20028;-68
2022/11/27 01:25:22;;;;;;;11.07;6.40;;;7.00;87.90;;;;;;5093854;28;20469;-68
2022/11/27 01:27:48;;;;;;;12.87;7.00;;;7.00;88.30;;;;;;5093079;28;20092;-68
2022/11/27 01:30:14;;;;;;;13.33;6.63;;;7.00;88.70;;;;;;5093712;28;20397;-68
2022/11/27 01:32:39;;;;;;;13.73;6.17;;;7.00;88.50;;;;;;5093587;28;20115;-68
2022/11/27 01:35:05;;;;;;;9.33;5.97;;;7.00;88.50;;;;;;5093920;28;20024;-68
2022/11/27 01:37:31;;;;;;;9.70;5.70;;;6.90;88.90;;;;;;5093523;28;20111;-68
2022/11/27 01:39:57;;;;;;;8.97;5.70;;;6.90;88.60;;;;;;5093963;28;20062;-68
2022/11/27 01:42:22;;;;;;;13.10;6.40;;;6.90;88.50;;;;;;5093583;28;20039;-68
2022/11/27 01:44:51;;;;;;;8.10;5.67;;;7.00;88.90;;;;;;5093635;28;20024;-68
2022/11/27 01:47:28;;;;;;;9.20;5.63;;;6.90;88.90;;;;;;5093522;28;20388;-68
2022/11/27 01:50:01;;;;;;;8.33;5.60;;;6.90;88.80;;;;;;5093536;28;20024;-68
2022/11/27 01:52:34;;;;;;;11.73;5.77;;;6.90;88.40;;;;;;5093419;28;20028;-68
2022/11/27 01:55:08;;;;;;;9.40;5.70;;;6.80;88.70;;;;;;5093408;28;20093;-68
2022/11/27 01:57:38;;;;;;;9.60;5.20;;;6.80;88.90;;;;;;5092430;28;20163;-69
2022/11/27 02:00:07;;;;;;;7.77;4.93;;;6.80;89.00;;;;;;5090283;28;20032;-68
2022/11/27 02:02:33;;;;;;;8.93;4.60;;;6.80;89.10;;;;;;5089057;28;20426;-69
2022/11/27 02:04:59;;;;;;;8.67;4.57;;;6.80;89.50;;;;;;5091932;28;20103;-69
2022/11/27 02:07:25;;;;;;;7.53;4.43;;;6.80;89.60;;;;;;5093149;28;20056;-68
2022/11/27 02:09:50;;;;;;;8.07;4.73;;;6.80;89.20;;;;;;5093193;28;20024;-69
2022/11/27 02:12:26;;;;;;;6.93;5.00;;;6.80;89.20;;;;;;5093176;28;20247;-68
2022/11/27 02:15:17;;;;;;;9.17;4.90;;;6.80;89.40;;;;;;5092878;28;20020;-68
2022/11/27 02:17:49;;;;;;;8.50;5.57;;;6.80;89.50;;;;;;5092954;28;20024;-68
2022/11/27 02:20:49;;;;;;;7.35;4.95;;;6.70;89.80;;;;;;5092876;28;20020;-68
2022/11/27 02:23:50;;;;;;;8.23;5.07;;;6.70;90.00;;;;;;5093280;28;20035;-68
2022/11/27 02:26:28;;;;;;;7.57;4.77;;;6.70;89.80;;;;;;5050585;28;20552;-68
2022/11/27 02:28:59;;;;;;;9.63;4.43;;;6.70;89.70;;;;;;5083071;28;20059;-68
2022/11/27 02:31:34;;;;;;;7.87;4.83;;;6.70;89.40;;;;;;5092655;28;20374;-68
2022/11/27 02:34:10;;;;;;;7.63;4.40;;;6.70;89.40;;;;;;5091602;28;20488;-68
2022/11/27 02:36:42;;;;;;;8.43;4.80;;;6.70;89.50;;;;;;5092681;28;20082;-68
2022/11/27 02:39:13;;;;;;;8.32;4.55;;;6.70;88.50;;;;;;5093648;28;20359;-70
2022/11/27 02:41:59;;;;;;;7.83;4.90;;;6.70;89.40;;;;;;5096685;28;20024;-68
2022/11/27 02:44:28;;;;;;;7.97;5.00;;;6.70;89.40;;;;;;5096705;28;20046;-69
2022/11/27 02:46:54;;;;;;;7.13;4.17;;;6.70;89.10;;;;;;5096766;28;20031;-69
2022/11/27 02:49:21;;;;;;;10.93;4.43;;;6.60;89.30;;;;;;5096940;28;20020;-69
2022/11/27 02:51:56;;;;;;;8.83;4.13;;;6.60;89.30;;;;;;5096747;28;20478;-68
2022/11/27 02:54:27;;;;;;;8.80;4.20;;;6.50;89.50;;;;;;5096645;28;20478;-68
2022/11/27 02:56:54;;;;;;;7.70;4.03;;;6.50;89.70;;;;;;5096831;28;20024;-69
2022/11/27 02:59:23;;;;;;;8.20;4.10;;;6.50;89.90;;;;;;5096823;28;20052;-69
2022/11/27 03:01:57;;;;;;;9.03;4.70;;;6.50;90.10;;;;;;5096541;28;20412;-68
2022/11/27 03:04:31;;;;;;;5.77;4.00;;;6.50;90.10;;;;;;5096625;28;20508;-68
2022/11/27 03:07:00;;;;;;;8.83;5.07;;;6.50;90.20;;;;;;5096717;28;20047;-69
2022/11/27 03:09:37;;;;;;;7.87;4.80;;;6.40;90.20;;;;;;5096491;28;20111;-69
2022/11/27 03:12:05;;;;;;;7.97;4.90;;;6.50;90.30;;;;;;5096316;28;20537;-68
2022/11/27 03:14:33;;;;;;;10.73;4.70;;;6.50;90.40;;;;;;5096384;28;20116;-68
2022/11/27 03:17:26;;;;;;;7.40;4.20;;;6.50;90.60;;;;;;5096480;28;20386;-69
2022/11/27 03:20:07;;;;;;;6.28;4.10;;;6.50;90.40;;;;;;5096513;28;20035;-68
2022/11/27 03:22:33;;;;;;;7.57;4.20;;;6.50;90.60;;;;;;5096212;28;20020;-68
2022/11/27 03:24:58;;;;;;;7.77;4.37;;;6.50;90.50;;;;;;5096122;28;20546;-68
2022/11/27 03:27:31;;;;;;;5.90;3.70;;;6.50;90.60;;;;;;5095754;28;20482;-68
2022/11/27 03:30:00;;;;;;;5.22;3.50;;;6.60;90.40;;;;;;5096274;28;20035;-68
2022/11/27 03:32:27;;;;;;;5.40;3.33;;;6.50;90.40;;;;;;5096272;28;20035;-71
2022/11/27 03:34:54;;;;;;;7.33;4.20;;;6.50;90.30;;;;;;5095763;28;20025;-68
2022/11/27 03:37:21;;;;;;;7.87;4.27;;;6.60;90.30;;;;;;5096010;28;20595;-68
2022/11/27 03:39:46;;;;;;;8.70;4.70;;;6.60;90.40;;;;;;5096020;28;20062;-68
2022/11/27 03:42:41;;;;;;;8.23;4.03;;;6.60;90.30;;;;;;5095950;28;20023;-69
2022/11/27 03:45:15;;;;;;;6.03;3.80;;;6.60;90.40;;;;;;5096038;28;20501;-68
2022/11/27 03:48:05;;;;;;;5.40;3.57;;;6.60;90.20;;;;;;5095966;28;20389;-68
2022/11/27 03:50:40;;;;;;;10.20;3.70;;;6.50;90.00;;;;;;5095198;28;20027;-68
2022/11/27 03:53:18;;;;;;;5.00;3.30;;;6.50;90.20;;;;;;5094426;28;20025;-68
2022/11/27 03:56:10;;;;;;;5.27;3.40;;;6.40;90.10;;;;;;5095752;28;20382;-68
2022/11/27 03:58:44;;;;;;;5.57;3.63;;;6.40;90.20;;;;;;5094178;28;20060;-69
2022/11/27 04:01:13;;;;;;;7.53;3.70;;;6.40;90.00;;;;;;5095557;28;20054;-68
2022/11/27 04:03:39;;;;;;;7.07;3.43;;;6.40;90.10;;;;;;5094362;28;20073;-68
2022/11/27 04:06:05;;;;;;;6.67;3.50;;;6.40;90.10;;;;;;5095707;28;20024;-68
2022/11/27 04:08:31;;;;;;;10.03;3.67;;;6.40;89.80;;;;;;5094019;28;20047;-68
2022/11/27 04:10:56;;;;;;;5.60;3.40;;;6.30;89.90;;;;;;5095341;28;20073;-68
2022/11/27 04:13:22;;;;;;;6.17;3.67;;;6.30;90.20;;;;;;5095233;28;20053;-68
2022/11/27 04:15:48;;;;;;;7.40;3.20;;;6.30;90.30;;;;;;5095391;28;20028;-68
2022/11/27 04:18:14;;;;;;;4.83;2.90;;;6.30;90.60;;;;;;5095294;28;20103;-69
2022/11/27 04:20:40;;;;;;;6.00;3.23;;;6.30;90.70;;;;;;5095236;28;20473;-68
2022/11/27 04:23:05;;;;;;;6.67;3.27;;;6.30;90.20;;;;;;5095142;28;20146;-69
2022/11/27 04:25:31;;;;;;;8.27;3.83;;;6.20;90.30;;;;;;5095003;28;20032;-68
2022/11/27 04:27:57;;;;;;;6.37;3.13;;;6.20;90.00;;;;;;5094508;28;20058;-68
2022/11/27 04:30:23;;;;;;;5.37;3.00;;;6.10;90.20;;;;;;5095154;28;20035;-69
2022/11/27 04:32:49;;;;;;;4.80;2.63;;;6.10;90.20;;;;;;5095112;28;20028;-68
2022/11/27 04:35:14;;;;;;;5.37;3.27;;;6.10;90.10;;;;;;5094895;28;20419;-68
2022/11/27 04:37:40;;;;;;;5.37;3.03;;;6.10;90.20;;;;;;5094707;28;20032;-68
2022/11/27 04:40:06;;;;;;;4.07;2.63;;;6.10;89.80;;;;;;5094672;28;20024;-69
2022/11/27 04:42:32;;;;;;;6.20;3.70;;;6.10;90.20;;;;;;5094767;28;20066;-68
2022/11/27 04:44:58;;;;;;;6.00;3.13;;;6.00;90.30;;;;;;5094515;28;20024;-68
2022/11/27 04:47:23;;;;;;;5.87;4.13;;;6.00;90.40;;;;;;5094397;28;20028;-69
2022/11/27 04:49:49;;;;;;;10.67;7.07;;;6.00;90.60;;;;;;5094435;28;20050;-69
2022/11/27 04:52:15;;;;;;;8.80;4.40;;;6.00;90.70;;;;;;5092905;28;20036;-68
2022/11/27 04:54:40;;;;;;;12.13;6.07;;;6.00;90.20;;;;;;5094387;28;20071;-68
2022/11/27 04:57:06;;;;;;;9.93;4.80;;;5.90;90.40;;;;;;5094438;28;20091;-68
2022/11/27 04:59:32;;;;;;;46.50;27.63;;;5.90;90.60;;;;;;5094300;28;20028;-69
2022/11/27 05:01:58;;;;;;;15.97;11.40;;;5.90;90.60;;;;;;5092158;28;20062;-68
2022/11/27 05:04:24;;;;;;;7.93;4.87;;;5.90;90.40;;;;;;5094466;28;20073;-68
2022/11/27 05:06:49;;;;;;;9.10;5.53;;;5.80;90.50;;;;;;5094362;28;20031;-68
2022/11/27 05:09:18;;;;;;;17.57;9.33;;;5.80;90.70;;;;;;5093874;28;20028;-69
2022/11/27 05:11:44;;;;;;;15.00;10.20;;;5.80;91.10;;;;;;5094068;28;20080;-70
2022/11/27 05:14:21;;;;;;;14.97;11.83;;;5.80;91.20;;;;;;5094097;28;20115;-68
2022/11/27 05:16:48;;;;;;;7.27;5.30;;;5.80;91.00;;;;;;5094107;28;20024;-68
2022/11/27 05:19:15;;;;;;;36.33;32.60;;;5.70;90.90;;;;;;5094045;28;20020;-69
2022/11/27 05:21:41;;;;;;;19.60;17.00;;;5.70;90.90;;;;;;5093933;28;20048;-69
2022/11/27 05:24:08;;;;;;;8.57;4.60;;;5.70;90.80;;;;;;5093794;28;20028;-68
2022/11/27 05:26:33;;;;;;;7.17;3.83;;;5.70;90.80;;;;;;5094126;28;20081;-69
2022/11/27 05:28:59;;;;;;;6.03;3.17;;;5.70;91.10;;;;;;5093614;28;20056;-69
2022/11/27 05:31:25;;;;;;;5.27;3.20;;;5.70;90.90;;;;;;5094110;28;20027;-68
2022/11/27 05:33:51;;;;;;;8.40;3.87;;;5.70;90.90;;;;;;5093907;28;20591;-68
2022/11/27 05:36:16;;;;;;;6.13;3.90;;;5.70;91.20;;;;;;5093434;28;20028;-68
2022/11/27 05:38:42;;;;;;;7.83;3.67;;;5.70;91.10;;;;;;5092673;28;20386;-69
2022/11/27 05:41:08;;;;;;;6.43;4.20;;;5.70;90.90;;;;;;5093957;28;20066;-69
2022/11/27 05:43:33;;;;;;;9.47;4.00;;;5.70;90.90;;;;;;5093660;28;20028;-68
2022/11/27 05:46:04;;;;;;;5.60;4.13;;;5.70;90.80;;;;;;5093367;28;20016;-68
2022/11/27 05:48:29;;;;;;;6.13;3.93;;;5.70;90.90;;;;;;5093512;28;20039;-68
2022/11/27 05:50:56;;;;;;;5.03;3.53;;;5.60;91.00;;;;;;5093737;28;20016;-69
2022/11/27 05:53:21;;;;;;;4.90;3.77;;;5.60;91.20;;;;;;5093359;28;20024;-68
2022/11/27 05:55:47;;;;;;;11.00;4.20;;;5.60;90.90;;;;;;5093614;28;20030;-69
2022/11/27 05:58:13;;;;;;;7.33;3.93;;;5.50;91.00;;;;;;5093583;28;20031;-68
2022/11/27 06:00:38;;;;;;;5.37;3.77;;;5.50;90.90;;;;;;5093300;28;20090;-69
2022/11/27 06:03:04;;;;;;;6.93;4.60;;;5.50;90.70;;;;;;5093390;28;20051;-69
2022/11/27 06:05:29;;;;;;;5.73;3.43;;;5.50;90.80;;;;;;5093143;28;20052;-68
2022/11/27 06:07:55;;;;;;;8.77;3.67;;;5.40;90.70;;;;;;5093037;28;20097;-68
2022/11/27 06:10:21;;;;;;;5.37;2.90;;;5.40;90.70;;;;;;5093223;28;20024;-68
2022/11/27 06:12:46;;;;;;;5.83;3.30;;;5.30;90.70;;;;;;5092800;28;20038;-68
2022/11/27 06:15:12;;;;;;;10.33;3.60;;;5.30;90.70;;;;;;5093254;28;20112;-69
2022/11/27 06:17:38;;;;;;;6.07;3.40;;;5.30;90.70;;;;;;5093124;28;20063;-68
2022/11/27 06:20:04;;;;;;;7.17;4.03;;;5.20;90.90;;;;;;5093042;28;20020;-68
2022/11/27 06:22:30;;;;;;;7.27;3.90;;;5.20;91.20;;;;;;5093009;28;20083;-68
2022/11/27 06:24:56;;;;;;;7.73;4.07;;;5.20;91.40;;;;;;5093051;28;20020;-68
2022/11/27 06:27:21;;;;;;;11.43;3.97;;;5.20;91.00;;;;;;5092717;28;20097;-68
2022/11/27 06:29:47;;;;;;;9.40;5.10;;;5.20;90.80;;;;;;5093114;28;20030;-68
2022/11/27 06:32:13;;;;;;;8.40;4.23;;;5.20;90.80;;;;;;5093226;28;20032;-68
2022/11/27 06:34:38;;;;;;;8.67;5.43;;;5.10;90.90;;;;;;5092713;28;20085;-68
2022/11/27 06:37:04;;;;;;;8.73;4.40;;;5.10;91.00;;;;;;5093008;28;20020;-68
2022/11/27 06:39:30;;;;;;;8.43;4.67;;;5.10;91.10;;;;;;5093214;28;20028;-69
2022/11/27 06:41:55;;;;;;;11.97;4.70;;;5.00;91.00;;;;;;5093310;28;20020;-69
2022/11/27 06:44:21;;;;;;;6.40;4.53;;;5.10;91.30;;;;;;5092996;28;20020;-69
2022/11/27 06:46:47;;;;;;;7.47;4.30;;;5.10;91.20;;;;;;5092823;28;20390;-68
2022/11/27 06:49:12;;;;;;;7.40;4.30;;;5.10;91.30;;;;;;5092710;28;20036;-69
2022/11/27 06:51:38;;;;;;;8.57;4.40;;;5.20;91.60;;;;;;5092647;28;20165;-68
2022/11/27 06:54:04;;;;;;;6.70;4.30;;;5.20;91.60;;;;;;5092598;28;20024;-69
2022/11/27 06:56:31;;;;;;;6.97;3.73;;;5.20;91.70;;;;;;5092752;28;20028;-68
2022/11/27 06:58:59;;;;;;;10.73;4.10;;;5.20;91.90;;;;;;5092746;28;20473;-68
2022/11/27 07:01:26;;;;;;;6.77;4.03;;;5.20;92.20;;;;;;5092418;28;20359;-69
2022/11/27 07:03:52;;;;;;;7.23;3.40;;;5.20;92.30;;;;;;5092549;28;20099;-69
2022/11/27 07:06:20;;;;;;;8.20;3.70;;;5.30;92.50;;;;;;5092594;28;20111;-69
2022/11/27 07:08:47;;;;;;;6.57;3.73;;;5.40;92.50;;;;;;5092517;28;20040;-69
2022/11/27 07:11:24;;;;;;;5.77;3.47;;;5.40;92.40;;;;;;5092661;28;20051;-69
2022/11/27 07:13:50;;;;;;;6.00;3.60;;;5.50;92.10;;;;;;5092521;28;20024;-70
2022/11/27 07:16:17;;;;;;;6.70;3.57;;;5.60;92.20;;;;;;5091981;28;20031;-69
2022/11/27 07:18:45;;;;;;;5.70;3.43;;;5.60;92.30;;;;;;5092515;28;20043;-69
2022/11/27 07:21:11;;;;;;;6.33;3.87;;;5.70;92.20;;;;;;5092799;28;20437;-68
2022/11/27 07:23:37;;;;;;;10.03;3.30;;;5.80;92.30;;;;;;5092505;28;20090;-68
2022/11/27 07:26:08;;;;;;;6.37;3.40;;;5.90;92.30;;;;;;5094639;28;20058;-69
2022/11/27 07:28:34;;;;;;;7.33;3.57;;;6.00;92.20;;;;;;5095519;28;20050;-69
2022/11/27 07:31:00;;;;;;;9.13;3.37;;;6.00;92.10;;;;;;5096060;28;20051;-68
2022/11/27 07:33:26;;;;;;;7.03;3.60;;;6.10;92.00;;;;;;5095487;28;20060;-69
2022/11/27 07:36:00;;;;;;;6.60;3.70;;;6.20;91.90;;;;;;5095855;28;20054;-69
2022/11/27 07:38:26;;;;;;;8.63;3.50;;;6.30;91.80;;;;;;5094974;28;20043;-68
2022/11/27 07:40:52;;;;;;;11.00;3.67;;;6.40;91.70;;;;;;5095350;28;20032;-68
2022/11/27 07:43:18;;;;;;;7.73;3.50;;;6.50;91.50;;;;;;5093664;28;20480;-68
2022/11/27 07:45:43;;;;;;;7.70;3.37;;;6.60;91.40;;;;;;5095234;28;20491;-71
2022/11/27 07:48:09;;;;;;;8.83;3.37;;;6.70;91.20;;;;;;5093808;28;20028;-69
2022/11/27 07:50:34;;;;;;;4.93;3.50;;;6.80;91.20;;;;;;5095208;28;20013;-68
2022/11/27 07:53:00;;;;;;;7.60;3.80;;;6.90;91.10;;;;;;5095448;28;20036;-69
2022/11/27 07:55:26;;;;;;;8.20;3.80;;;7.00;91.20;;;;;;5095355;28;20028;-69
2022/11/27 07:57:51;;;;;;;7.50;3.50;;;7.10;91.10;;;;;;5093646;28;20438;-69
2022/11/27 08:00:18;;;;;;;8.33;4.20;;;7.20;91.00;;;;;;5094354;28;20041;-71
2022/11/27 08:02:43;;;;;;;14.00;4.23;;;7.30;90.80;;;;;;5095304;28;20015;-69
2022/11/27 08:05:09;;;;;;;10.87;4.50;;;7.30;90.60;;;;;;5095402;28;20032;-68
2022/11/27 08:07:34;;;;;;;5.90;3.70;;;7.40;90.40;;;;;;5094919;28;20035;-69
2022/11/27 08:10:00;;;;;;;10.43;3.80;;;7.50;90.30;;;;;;5094829;28;20078;-69
2022/11/27 08:12:26;;;;;;;8.77;3.63;;;7.50;90.10;;;;;;5094614;28;20047;-68
2022/11/27 08:14:52;;;;;;;6.73;3.30;;;7.60;90.00;;;;;;5095097;28;20028;-68
2022/11/27 08:17:17;;;;;;;5.87;3.20;;;7.60;89.90;;;;;;5094790;28;20444;-68
2022/11/27 08:19:43;;;;;;;9.90;3.63;;;7.70;90.00;;;;;;5094922;28;20028;-69
2022/11/27 08:22:14;;;;;;;5.77;3.20;;;7.80;90.00;;;;;;5095058;28;20473;-69
2022/11/27 08:24:41;;;;;;;6.97;3.27;;;7.80;89.20;;;;;;5095042;28;20024;-69
2022/11/27 08:27:08;;;;;;;6.90;3.23;;;7.90;89.00;;;;;;5094550;28;20111;-69
2022/11/27 08:29:34;;;;;;;6.77;3.33;;;7.90;88.40;;;;;;5094736;28;20024;-69
2022/11/27 08:32:00;;;;;;;7.57;4.00;;;8.00;88.40;;;;;;5094679;28;20031;-68
2022/11/27 08:34:25;;;;;;;8.00;4.50;;;8.10;88.00;;;;;;5094861;28;20065;-69
2022/11/27 08:36:51;;;;;;;9.17;5.47;;;8.10;88.10;;;;;;5094860;28;20367;-69
2022/11/27 08:39:17;;;;;;;6.63;4.30;;;8.20;87.90;;;;;;5094723;28;20035;-68
2022/11/27 08:41:43;;;;;;;5.37;3.63;;;8.20;87.60;;;;;;5094386;28;20020;-69
2022/11/27 08:57:18;;;;;;;6.90;4.20;;;8.30;86.60;;;;;;5110158;27;20829;-69
2022/11/27 08:59:44;;;;;;;6.50;3.30;;;9.00;85.10;;;;;;5109881;28;20027;-69
2022/11/27 09:02:12;;;;;;;6.60;3.60;;;9.00;84.60;;;;;;5110392;28;20094;-68
2022/11/27 09:04:38;;;;;;;8.63;3.83;;;9.00;84.30;;;;;;5110408;28;20023;-66
2022/11/27 09:07:03;;;;;;;5.10;3.33;;;9.10;83.90;;;;;;5110393;28;20099;-68
2022/11/27 09:09:29;;;;;;;6.47;3.70;;;9.10;84.30;;;;;;5110335;28;20020;-68
2022/11/27 09:11:54;;;;;;;7.30;3.67;;;9.10;84.80;;;;;;5110120;28;20051;-68
2022/11/27 09:14:20;;;;;;;6.73;4.00;;;9.10;84.20;;;;;;5110350;28;20020;-68
2022/11/27 09:16:46;;;;;;;12.40;3.73;;;9.20;84.30;;;;;;5110104;28;20038;-68
2022/11/27 09:19:11;;;;;;;9.50;3.70;;;9.20;84.20;;;;;;5109972;28;20478;-68
2022/11/27 09:21:37;;;;;;;7.57;3.70;;;9.20;84.00;;;;;;5109357;28;20028;-68
2022/11/27 09:24:03;;;;;;;8.20;3.53;;;9.30;83.00;;;;;;5109752;28;20020;-67
2022/11/27 09:26:29;;;;;;;5.03;3.60;;;9.30;83.30;;;;;;5109337;28;20024;-68
2022/11/27 09:28:57;;;;;;;7.30;3.50;;;9.30;83.00;;;;;;5108473;28;20035;-68
2022/11/27 09:31:23;;;;;;;4.50;3.33;;;9.40;82.80;;;;;;5109807;28;20053;-67
2022/11/27 09:33:49;;;;;;;5.13;2.90;;;9.40;82.70;;;;;;5107713;28;20392;-69
2022/11/27 09:36:17;;;;;;;6.27;2.73;;;9.40;82.70;;;;;;5107028;28;20111;-68
2022/11/27 09:38:44;;;;;;;4.67;2.63;;;9.50;82.90;;;;;;5109139;28;20422;-68
2022/11/27 09:41:10;;;;;;;7.73;3.03;;;9.50;82.90;;;;;;5109857;28;20477;-68
2022/11/27 09:43:47;;;;;;;6.03;4.93;;;9.60;82.70;;;;;;5109996;28;20027;-68
2022/11/27 09:46:22;;;;;;;7.00;2.77;;;9.70;82.50;;;;;;5109736;28;20032;-68
2022/11/27 09:48:50;;;;;;;3.60;2.40;;;9.70;81.70;;;;;;5109742;28;20455;-68
2022/11/27 09:51:34;;;;;;;4.30;2.43;;;9.80;81.10;;;;;;5108422;28;20043;-68
2022/11/27 09:54:11;;;;;;;4.40;2.30;;;9.80;80.90;;;;;;5109655;28;20039;-68
2022/11/27 09:56:36;;;;;;;5.67;2.70;;;9.90;80.60;;;;;;5105201;28;20051;-70
2022/11/27 09:59:03;;;;;;;6.93;2.37;;;9.90;80.10;;;;;;5093664;28;20028;-69
2022/11/27 10:01:31;;;;;;;6.07;2.50;;;9.90;79.40;;;;;;5093097;28;20036;-68
2022/11/27 10:03:59;;;;;;;4.57;2.13;;;10.00;79.30;;;;;;5093530;28;20036;-68
2022/11/27 10:06:51;;;;;;;3.63;2.00;;;10.00;77.60;;;;;;5095700;28;20024;-68
2022/11/27 10:09:44;;;;;;;6.23;2.20;;;10.10;78.00;;;;;;5095875;28;20116;-67
2022/11/27 10:12:29;;;;;;;4.35;2.40;;;10.10;77.70;;;;;;5095588;28;20024;-68
2022/11/27 10:15:13;;;;;;;3.70;1.87;;;10.20;77.90;;;;;;5095597;28;20036;-68
2022/11/27 10:17:58;;;;;;;6.33;2.20;;;10.30;77.20;;;;;;5095684;28;20056;-68
2022/11/27 10:21:08;;;;;;;6.47;2.20;;;10.30;76.40;;;;;;5095421;28;20047;-68
2022/11/27 10:23:45;;;;;;;5.10;2.50;;;10.40;76.50;;;;;;5073152;28;20029;-67
2022/11/27 10:26:21;;;;;;;5.20;1.90;;;10.40;74.90;;;;;;5093878;28;20086;-68
2022/11/27 10:29:16;;;;;;;5.57;1.80;;;10.50;74.60;;;;;;5095095;28;20191;-68
2022/11/27 10:31:58;;;;;;;7.17;2.00;;;10.50;73.70;;;;;;5095430;28;20032;-68
2022/11/27 10:34:37;;;;;;;5.37;2.40;;;10.50;73.30;;;;;;5095332;28;20148;-68
2022/11/27 10:37:22;;;;;;;5.40;2.27;;;10.60;72.60;;;;;;5095317;28;20036;-68
2022/11/27 10:39:57;;;;;;;7.70;2.03;;;10.60;72.50;;;;;;5095264;28;20380;-69
2022/11/27 10:42:34;;;;;;;6.37;2.13;;;10.70;72.60;;;;;;5094995;28;20035;-69
2022/11/27 10:45:06;;;;;;;5.13;2.10;;;10.70;72.30;;;;;;5095288;28;20078;-68
2022/11/27 10:47:32;;;;;;;4.72;1.90;;;10.80;71.10;;;;;;5095245;28;20030;-68
2022/11/27 10:49:58;;;;;;;5.88;1.90;;;10.80;71.40;;;;;;5094974;28;20020;-68
2022/11/27 10:52:25;;;;;;;4.40;1.70;;;10.80;71.10;;;;;;5095099;28;20035;-68
2022/11/27 10:54:59;;;;;;;5.45;2.22;;;10.90;70.90;;;;;;5094497;28;20093;-68
2022/11/27 10:58:10;;;;;;;4.47;1.90;;;10.90;70.70;;;;;;5095185;28;20477;-69
2022/11/27 11:00:36;;;;;;;5.57;2.30;;;11.00;69.70;;;;;;5095030;28;20070;-68
2022/11/27 11:03:04;;;;;;;2.78;1.50;;;11.00;69.70;;;;;;5094744;28;20036;-68
2022/11/27 11:05:31;;;;;;;4.57;1.80;;;11.10;69.40;;;;;;5094637;28;20462;-70
2022/11/27 11:08:04;;;;;;;5.13;1.70;;;11.10;68.50;;;;;;5094481;28;20027;-69
2022/11/27 11:10:31;;;;;;;;;;;11.20;68.30;;;;;;5095078;28;20074;-68
2022/11/27 11:13:41;;;;;;;3.50;1.60;;;11.20;67.50;;;;;;5094551;28;19937;-68
2022/11/27 11:16:23;;;;;;;4.93;1.90;;;11.30;67.70;;;;;;5072276;28;20159;-68
2022/11/27 11:18:51;;;;;;;3.45;1.88;;;11.30;68.40;;;;;;5093861;28;20115;-69
2022/11/27 11:21:31;;;;;;;2.60;1.30;;;11.40;68.10;;;;;;5094664;28;20056;-68
2022/11/27 11:23:58;;;;;;;5.03;1.38;;;11.50;65.10;;;;;;5094266;28;20474;-68
2022/11/27 11:26:28;;;;;;;2.42;1.50;;;11.50;65.30;;;;;;5094518;28;20024;-68
2022/11/27 11:28:57;;;;;;;2.53;1.30;;;11.60;65.60;;;;;;5094487;28;20028;-67
2022/11/27 11:31:35;;;;;;;2.00;1.23;;;11.70;64.00;;;;;;5094533;28;20384;-68
2022/11/27 11:34:04;;;;;;;3.78;1.20;;;11.70;62.80;;;;;;5094415;28;20028;-69
2022/11/27 11:36:31;;;;;;;4.13;0.90;;;11.70;63.00;;;;;;5094116;28;20059;-68
2022/11/27 11:38:56;;;;;;;2.55;1.40;;;11.70;62.00;;;;;;5094199;28;20024;-68
2022/11/27 11:41:23;;;;;;;5.50;1.70;;;11.80;60.10;;;;;;5094091;28;20028;-68
2022/11/27 11:43:55;;;;;;;3.55;1.10;;;11.80;60.20;;;;;;5092789;28;20069;-70
2022/11/27 11:46:24;;;;;;;3.20;1.48;;;11.80;61.30;;;;;;5093894;28;20024;-68
2022/11/27 11:48:56;;;;;;;2.85;1.20;;;11.80;60.60;;;;;;5092804;28;20027;-68
2022/11/27 11:51:59;;;;;;;3.22;1.50;;;11.80;60.80;;;;;;5093909;28;20024;-69
2022/11/27 11:54:48;;;;;;;2.85;1.05;;;11.90;60.90;;;;;;5093948;28;20020;-69
2022/11/27 11:57:52;;;;;;;1.90;1.00;;;12.00;60.00;;;;;;5093694;28;20074;-68
2022/11/27 12:00:24;;;;;;;2.78;1.70;;;12.00;59.00;;;;;;5089111;28;20428;-69
2022/11/27 12:03:17;;;;;;;2.63;0.87;;;12.00;58.10;;;;;;5091337;28;20107;-68
2022/11/27 12:05:51;;;;;;;3.15;1.30;;;12.00;59.20;;;;;;5094109;28;20024;-68
2022/11/27 12:08:38;;;;;;;5.80;1.20;;;12.00;57.60;;;;;;5093681;28;20392;-68
2022/11/27 12:11:39;;;;;;;2.97;1.40;;;12.00;57.70;;;;;;5092232;28;20035;-68
2022/11/27 12:14:26;;;;;;;4.43;1.50;;;11.90;57.60;;;;;;5093706;28;20472;-68
2022/11/27 12:17:16;;;;;;;2.83;1.20;;;11.90;58.30;;;;;;5093547;28;20080;-68
2022/11/27 12:20:04;;;;;;;6.78;1.20;;;11.90;58.40;;;;;;5093172;28;20050;-68
2022/11/27 12:22:47;;;;;;;4.38;1.40;;;11.90;58.00;;;;;;5093231;28;20537;-69
2022/11/27 12:25:58;;;;;;;3.67;1.48;;;11.90;58.60;;;;;;5089140;28;20526;-68
2022/11/27 12:29:01;;;;;;;5.65;1.60;;;11.90;59.40;;;;;;5089328;28;20044;-69
2022/11/27 12:31:50;;;;;;;2.83;1.50;;;11.90;58.40;;;;;;5092992;28;20066;-68
2022/11/27 12:34:37;;;;;;;3.22;1.20;;;12.00;59.00;;;;;;5093378;28;20461;-68
2022/11/27 12:37:21;;;;;;;5.50;1.30;;;12.00;59.30;;;;;;5091988;28;20036;-69
2022/11/27 12:40:25;;;;;;;2.78;1.40;;;12.00;57.40;;;;;;5092738;28;20029;-68
2022/11/27 12:43:05;;;;;;;3.22;1.40;;;11.90;57.50;;;;;;5092982;28;20032;-69
2022/11/27 12:45:44;;;;;;;6.00;1.65;;;11.90;58.10;;;;;;5092693;28;20027;-69
2022/11/27 12:48:18;;;;;;;2.55;1.27;;;11.90;57.50;;;;;;5093335;28;20031;-68
2022/11/27 12:50:54;;;;;;;2.95;1.20;;;11.90;57.30;;;;;;5093137;28;20358;-69
2022/11/27 12:53:35;;;;;;;3.15;1.58;;;11.90;57.40;;;;;;5091324;28;20060;-68
2022/11/27 12:56:11;;;;;;;1.88;1.20;;;11.90;57.80;;;;;;5093066;28;20129;-70
2022/11/27 12:58:41;;;;;;;3.13;1.50;;;11.90;57.10;;;;;;5093224;28;20024;-68
2022/11/27 13:01:15;;;;;;;2.00;1.15;;;12.00;58.20;;;;;;5092719;28;20107;-68
2022/11/27 13:04:06;;;;;;;3.75;1.60;;;11.90;57.70;;;;;;5093190;28;20462;-68
2022/11/27 13:06:39;;;;;;;3.78;1.15;;;11.90;57.80;;;;;;5092719;28;20474;-68
2022/11/27 13:09:12;;;;;;;1.80;1.42;;;12.00;58.00;;;;;;5092915;28;20044;-68
2022/11/27 13:11:40;;;;;;;3.03;1.50;;;11.90;57.90;;;;;;5092835;28;20058;-68
2022/11/27 13:14:20;;;;;;;5.72;1.60;;;11.90;57.70;;;;;;5092990;28;20016;-69
2022/11/27 13:16:51;;;;;;;4.60;1.77;;;11.90;57.70;;;;;;5093081;28;20032;-68
2022/11/27 13:19:40;;;;;;;4.82;1.45;;;11.90;57.50;;;;;;5092910;28;20020;-68
2022/11/27 13:22:11;;;;;;;4.65;1.33;;;11.90;57.10;;;;;;5092642;28;20028;-68
2022/11/27 13:24:37;;;;;;;3.72;1.58;;;11.90;56.70;;;;;;5092694;28;20032;-68
2022/11/27 13:27:08;;;;;;;2.38;1.58;;;11.80;56.60;;;;;;5092589;28;20036;-68